Time;durP1;ratioP1;P1;durP2;ratioP2;P2;SDS_P1;SDS_P2;PMS_P1;PMS_P2;Temp;Humidity;BMP_temperature;BMP_pressure;BME280_temperature;BME280_humidity;BME280_pressure;Samples;Min_cycle;Max_cycle;Signal;HPM_P1;HPM_P2
2021/05/01 14:51:06;;;;;;;4.63;2.97;;;;;;;20.14;34.78;98380.22;5147405;23;42327;-80
2021/05/01 14:53:33;;;;;;;2.47;2.37;;;;;;;19.99;35.09;98355.00;5006847;28;42297;-75
2021/05/01 14:56:10;;;;;;;3.37;2.60;;;;;;;19.86;34.44;98362.72;5007724;28;39924;-82
2021/05/01 14:58:39;;;;;;;2.90;2.20;;;;;;;19.90;33.97;98385.56;4990624;28;40817;-78
2021/05/01 15:01:19;;;;;;;1.90;1.80;;;;;;;19.69;33.63;98362.69;5010486;28;42665;-80
2021/05/01 15:03:47;;;;;;;1.97;1.87;;;;;;;19.70;34.75;98374.28;4993844;28;44691;-77
2021/05/01 15:06:15;;;;;;;2.00;1.90;;;;;;;19.65;34.02;98369.41;5008704;28;39060;-79
2021/05/01 15:08:43;;;;;;;1.70;1.60;;;;;;;19.70;34.27;98376.97;5009498;28;42422;-79
2021/05/01 15:11:12;;;;;;;1.43;1.33;;;;;;;19.66;33.67;98367.53;5007575;28;41758;-81
2021/05/01 15:13:40;;;;;;;2.07;1.50;;;;;;;19.66;34.90;98359.47;4996437;28;41747;-77
2021/05/01 15:16:07;;;;;;;1.87;1.60;;;;;;;19.69;34.37;98367.22;4997253;28;39682;-77
2021/05/01 15:18:35;;;;;;;1.60;1.50;;;;;;;19.68;34.56;98368.22;5011550;28;41841;-78
2021/05/01 15:21:12;;;;;;;1.77;1.50;;;;;;;19.68;35.24;98357.47;5003028;28;42741;-77
2021/05/01 15:23:42;;;;;;;2.30;1.93;;;;;;;19.71;34.23;98366.06;4993405;28;41151;-77
2021/05/01 15:26:11;;;;;;;2.07;1.80;;;;;;;19.70;34.13;98356.31;4997667;28;41261;-79
2021/05/01 15:28:38;;;;;;;1.77;1.67;;;;;;;19.72;34.90;98346.25;5010180;28;40755;-76
2021/05/01 15:31:05;;;;;;;1.50;1.40;;;;;;;19.68;34.63;98334.13;5000405;28;43511;-78
2021/05/01 15:33:34;;;;;;;2.17;1.80;;;;;;;19.76;33.44;98351.28;4999377;28;42979;-77
2021/05/01 15:36:03;;;;;;;1.40;1.23;;;;;;;19.78;33.67;98360.03;4986060;28;39023;-77
2021/05/01 15:38:31;;;;;;;1.40;1.30;;;;;;;19.73;33.73;98345.22;5005081;28;41914;-80
2021/05/01 15:41:00;;;;;;;1.70;1.27;;;;;;;19.82;34.25;98355.97;5007697;28;43431;-77
2021/05/01 15:43:27;;;;;;;1.60;1.50;;;;;;;19.72;34.66;98324.75;4988178;28;42750;-80
2021/05/01 15:45:55;;;;;;;2.43;2.20;;;;;;;19.77;33.32;98350.28;5006295;28;40340;-79
2021/05/01 15:48:24;;;;;;;2.03;1.77;;;;;;;19.72;33.67;98353.47;5002469;28;40980;-75
2021/05/01 15:50:52;;;;;;;2.00;1.50;;;;;;;19.66;34.32;98346.88;4986512;28;42842;-78
2021/05/01 15:53:19;;;;;;;1.87;1.77;;;;;;;19.62;34.26;98340.19;4995201;28;42028;-76
2021/05/01 15:55:48;;;;;;;2.30;2.10;;;;;;;19.54;33.82;98345.53;5001888;28;40582;-80
2021/05/01 15:58:17;;;;;;;2.83;2.57;;;;;;;19.48;34.52;98331.91;4999951;28;41231;-77
2021/05/01 16:00:45;;;;;;;2.77;2.30;;;;;;;19.39;34.40;98331.03;5001949;28;42197;-76
2021/05/01 16:03:13;;;;;;;2.50;2.30;;;;;;;19.15;35.17;98293.41;5008484;28;41749;-75
2021/05/01 16:05:41;;;;;;;2.63;2.43;;;;;;;19.29;35.50;98316.91;5023971;28;39122;-75
2021/05/01 16:08:15;;;;;;;3.27;2.83;;;;;;;19.15;35.31;98310.34;5006383;28;41924;-74
2021/05/01 16:10:42;;;;;;;2.83;2.53;;;;;;;19.11;35.16;98305.44;4981225;28;41909;-75
2021/05/01 16:13:10;;;;;;;4.10;3.10;;;;;;;19.07;35.88;98312.13;4995401;28;42633;-78
2021/05/01 16:15:38;;;;;;;2.80;2.60;;;;;;;19.01;35.97;98300.22;4992639;28;39534;-75
2021/05/01 16:18:05;;;;;;;3.17;2.70;;;;;;;18.98;36.41;98304.06;4994533;28;42197;-78
2021/05/01 16:20:32;;;;;;;3.13;2.47;;;;;;;18.97;36.66;98291.66;5009096;28;43422;-80
2021/05/01 16:23:00;;;;;;;3.10;2.57;;;;;;;18.95;36.40;98304.38;4998501;28;42433;-79
2021/05/01 16:25:31;;;;;;;3.13;2.77;;;;;;;18.77;37.07;98284.03;4997510;28;39213;-78
2021/05/01 16:28:00;;;;;;;3.27;2.87;;;;;;;18.81;36.83;98302.31;5005141;28;41343;-79
2021/05/01 16:30:27;;;;;;;2.33;2.13;;;;;;;18.75;37.37;98300.28;4999002;28;41607;-76
2021/05/01 16:32:56;;;;;;;2.53;2.33;;;;;;;18.67;37.66;98298.38;5010423;28;42096;-78
2021/05/01 16:35:24;;;;;;;3.27;2.57;;;;;;;18.58;38.45;98280.59;4997141;28;39307;-81
2021/05/01 16:37:53;;;;;;;2.77;2.30;;;;;;;18.52;38.59;98280.38;4993159;28;41915;-79
2021/05/01 16:40:21;;;;;;;4.03;2.63;;;;;;;18.30;38.94;98254.94;5003115;28;42730;-77
2021/05/01 16:42:48;;;;;;;3.33;2.90;;;;;;;17.95;39.36;98226.41;5007837;28;43089;-74
2021/05/01 16:45:17;;;;;;;4.03;3.40;;;;;;;18.10;38.95;98270.41;5001929;28;39205;-80
2021/05/01 16:47:46;;;;;;;3.47;3.17;;;;;;;18.02;38.68;98285.59;4997034;28;42550;-76
2021/05/01 16:50:16;;;;;;;3.30;3.00;;;;;;;17.71;39.37;98274.44;5011816;28;42406;-77
2021/05/01 16:52:43;;;;;;;3.30;3.00;;;;;;;17.49;40.88;98270.38;4994803;28;44100;-77
2021/05/01 16:55:13;;;;;;;3.47;3.03;;;;;;;17.23;41.53;98272.97;4982221;28;38932;-78
2021/05/01 16:57:40;;;;;;;5.03;4.63;;;;;;;16.93;43.04;98252.78;4991823;28;42278;-78
2021/05/01 17:00:09;;;;;;;7.03;6.33;;;;;;;16.66;45.33;98240.25;4997649;28;43582;-77
2021/05/01 17:02:36;;;;;;;6.93;6.23;;;;;;;16.38;44.33;98257.25;5004348;28;41609;-77
2021/05/01 17:05:05;;;;;;;6.90;6.13;;;;;;;16.20;44.46;98254.47;5000742;28;39028;-80
2021/05/01 17:07:33;;;;;;;5.80;5.30;;;;;;;16.11;44.28;98247.34;4995208;28;40953;-76
2021/05/01 17:10:01;;;;;;;6.20;5.60;;;;;;;16.16;44.94;98245.94;4987341;28;41211;-79
2021/05/01 17:12:28;;;;;;;6.33;5.73;;;;;;;16.14;44.77;98245.22;5010035;28;41988;-77
2021/05/01 17:14:55;;;;;;;5.70;5.30;;;;;;;16.21;44.83;98247.31;4999465;28;40355;-81
2021/05/01 17:17:23;;;;;;;6.50;5.90;;;;;;;16.23;44.43;98253.34;5008624;28;41366;-75
2021/05/01 17:19:50;;;;;;;5.87;5.37;;;;;;;16.22;44.99;98247.16;5001998;28;43303;-78
2021/05/01 17:22:18;;;;;;;7.17;6.57;;;;;;;16.24;44.92;98255.03;5001813;28;42124;-76
2021/05/01 17:24:46;;;;;;;5.10;4.70;;;;;;;16.23;44.71;98253.34;4995466;28;40497;-76
2021/05/01 17:27:13;;;;;;;4.80;4.40;;;;;;;16.22;44.72;98252.50;5002579;28;40586;-78
2021/05/01 17:29:41;;;;;;;5.77;5.17;;;;;;;16.22;44.32;98262.34;4998012;28;42608;-75
2021/05/01 17:32:10;;;;;;;5.10;4.67;;;;;;;16.15;44.84;98252.25;4983408;28;42358;-79
2021/05/01 17:34:37;;;;;;;5.73;5.33;;;;;;;16.19;44.54;98260.00;5002508;28;39643;-81
2021/05/01 17:37:04;;;;;;;5.57;5.00;;;;;;;16.15;45.08;98257.59;5002957;28;42203;-76
2021/05/01 17:39:31;;;;;;;6.60;6.00;;;;;;;16.11;44.37;98261.53;4993533;28;42788;-75
2021/05/01 17:41:59;;;;;;;7.20;6.47;;;;;;;15.92;44.52;98234.91;5005113;28;42107;-76
2021/05/01 17:44:26;;;;;;;9.40;7.10;;;;;;;16.00;44.78;98253.69;4992275;28;40728;-76
2021/05/01 17:46:54;;;;;;;6.37;5.70;;;;;;;15.92;44.78;98256.28;4995005;28;41557;-76
2021/05/01 17:49:21;;;;;;;6.23;5.70;;;;;;;15.85;45.43;98247.13;4995524;28;44409;-77
2021/05/01 17:51:48;;;;;;;6.13;5.60;;;;;;;15.83;45.65;98251.75;5004746;28;42031;-78
2021/05/01 17:54:16;;;;;;;6.10;5.50;;;;;;;15.73;45.76;98240.25;4992636;28;39937;-80
2021/05/01 17:56:43;;;;;;;7.20;6.03;;;;;;;15.74;45.64;98257.97;4994557;28;41004;-78
2021/05/01 17:59:12;;;;;;;5.00;4.50;;;;;;;15.67;46.17;98251.53;4999148;28;42022;-78
2021/05/01 18:01:39;;;;;;;6.10;5.60;;;;;;;15.62;45.82;98253.78;4995944;28;41905;-80
2021/05/01 18:04:06;;;;;;;6.57;5.47;;;;;;;15.56;46.04;98249.03;5005495;28;39789;-80
2021/05/01 18:06:33;;;;;;;5.43;5.00;;;;;;;15.45;45.98;98241.97;5001268;28;41585;-75
2021/05/01 18:09:01;;;;;;;5.07;4.67;;;;;;;15.46;45.93;98244.47;4991615;28;43396;-78
2021/05/01 18:11:28;;;;;;;5.47;5.00;;;;;;;15.32;46.43;98231.59;4995252;28;42588;-80
2021/05/01 18:13:55;;;;;;;5.00;4.50;;;;;;;15.21;46.92;98229.03;4983416;28;39077;-77
2021/05/01 18:16:23;;;;;;;6.00;5.50;;;;;;;15.16;47.58;98231.28;4999930;28;41702;-74
2021/05/01 18:18:50;;;;;;;5.27;4.77;;;;;;;15.17;48.71;98245.47;5001769;28;42345;-79
2021/05/01 18:21:17;;;;;;;5.50;5.00;;;;;;;15.05;49.51;98236.75;4991564;28;42833;-77
2021/05/01 18:23:44;;;;;;;7.00;6.40;;;;;;;14.92;50.56;98231.69;4997689;28;39595;-74
2021/05/01 18:26:14;;;;;;;5.50;5.00;;;;;;;14.78;50.70;98234.75;5002271;28;40632;-79
2021/05/01 18:28:42;;;;;;;5.60;5.10;;;;;;;14.70;50.85;98230.13;4998208;28;42188;-74
2021/05/01 18:31:11;;;;;;;4.90;4.50;;;;;;;14.69;51.25;98231.09;5005449;28;43562;-80
2021/05/01 18:33:39;;;;;;;5.47;5.03;;;;;;;14.65;51.69;98235.00;5001584;28;40641;-77
2021/05/01 18:36:07;;;;;;;5.50;5.00;;;;;;;14.63;51.53;98234.28;5004549;28;42002;-77
2021/05/01 18:38:35;;;;;;;5.73;5.23;;;;;;;14.58;51.60;98236.53;5003230;28;43533;-76
2021/05/01 18:41:02;;;;;;;5.40;4.90;;;;;;;14.57;51.85;98253.50;5009502;28;40944;-81
2021/05/01 18:43:30;;;;;;;5.00;4.60;;;;;;;14.52;51.68;98253.06;4999658;28;39733;-76
2021/05/01 18:45:57;;;;;;;5.27;4.50;;;;;;;14.46;51.71;98250.94;4991517;28;40256;-76
2021/05/01 18:48:24;;;;;;;7.07;6.47;;;;;;;14.38;51.93;98242.72;4997663;28;42283;-74
2021/05/01 18:50:52;;;;;;;5.27;4.77;;;;;;;14.33;51.78;98247.63;5001421;28;41909;-76
2021/05/01 18:53:20;;;;;;;4.53;4.13;;;;;;;14.41;51.98;98261.16;4990678;28;39318;-80
2021/05/01 18:55:48;;;;;;;5.77;5.27;;;;;;;14.37;51.76;98254.34;4988498;28;41514;-79
2021/05/01 18:58:18;;;;;;;4.23;3.93;;;;;;;14.39;52.15;98257.75;5001122;28;42479;-75
2021/05/01 19:00:46;;;;;;;4.90;4.40;;;;;;;14.40;51.77;98269.28;4990352;28;42249;-75
2021/05/01 19:03:14;;;;;;;6.37;5.77;;;;;;;14.36;51.76;98274.81;4976628;28;41517;-80
2021/05/01 19:05:41;;;;;;;6.03;5.53;;;;;;;14.33;52.23;98274.28;4973273;28;40913;-80
2021/05/01 19:08:09;;;;;;;6.17;5.57;;;;;;;14.28;52.49;98271.16;4990657;28;42867;-80
2021/05/01 19:10:37;;;;;;;6.77;6.17;;;;;;;14.21;53.37;98270.00;4999466;28;42057;-79
2021/05/01 19:13:11;;;;;;;6.60;6.00;;;;;;;14.05;53.31;98254.50;4979944;28;40156;-78
2021/05/01 19:15:39;;;;;;;6.80;6.00;;;;;;;14.07;53.70;98267.69;5002203;28;41578;-76
2021/05/01 19:18:06;;;;;;;7.93;7.13;;;;;;;14.02;53.38;98262.75;4997631;28;41992;-80
2021/05/01 19:20:35;;;;;;;8.23;7.43;;;;;;;13.98;53.51;98264.81;4993809;28;41654;-76
2021/05/01 19:23:03;;;;;;;5.27;4.87;;;;;;;13.98;53.00;98271.97;5007837;28;40492;-79
2021/05/01 19:25:32;;;;;;;6.20;5.60;;;;;;;13.86;52.50;98244.59;4994062;28;42283;-75
2021/05/01 19:27:59;;;;;;;5.97;5.47;;;;;;;13.85;52.69;98248.22;4991264;28;41222;-82
2021/05/01 19:30:26;;;;;;;5.57;5.13;;;;;;;13.97;52.10;98268.47;4983069;28;42495;-76
2021/05/01 19:32:55;;;;;;;4.93;4.43;;;;;;;13.98;51.76;98269.31;4983915;28;40636;-77
2021/05/01 19:35:24;;;;;;;5.63;5.13;;;;;;;13.91;52.04;98269.00;4987331;28;41531;-78
2021/05/01 19:37:51;;;;;;;5.70;5.20;;;;;;;13.87;52.17;98272.88;4995421;28;42407;-78
2021/05/01 19:40:20;;;;;;;7.50;6.90;;;;;;;13.80;53.41;98277.06;5001054;28;42343;-78
2021/05/01 19:42:53;;;;;;;9.30;7.90;;;;;;;13.66;54.22;98261.41;4992500;28;40540;-77
2021/05/01 19:45:21;;;;;;;8.30;7.50;;;;;;;13.50;55.94;98259.19;5003334;28;41410;-79
2021/05/01 19:47:48;;;;;;;9.27;8.40;;;;;;;13.37;56.73;98263.00;4991302;28;42511;-78
2021/05/01 19:50:16;;;;;;;10.50;9.50;;;;;;;13.22;57.56;98236.75;4991058;28;42574;-77
2021/05/01 19:52:44;;;;;;;8.37;7.57;;;;;;;13.10;58.80;98235.06;5005961;28;41432;-76
2021/05/01 19:55:13;;;;;;;10.43;9.43;;;;;;;13.03;58.78;98241.84;4988092;28;41426;-79
2021/05/01 19:57:40;;;;;;;7.90;7.20;;;;;;;13.04;58.05;98255.97;5008981;28;43234;-76
2021/05/01 20:00:11;;;;;;;7.63;6.83;;;;;;;13.05;58.38;98262.97;5012460;28;42775;-76
2021/05/01 20:02:38;;;;;;;8.57;7.67;;;;;;;13.01;58.26;98264.19;4993167;28;39552;-77
2021/05/01 20:05:06;;;;;;;8.97;8.07;;;;;;;12.78;58.56;98229.72;4976972;28;41552;-77
2021/05/01 20:07:33;;;;;;;7.53;6.83;;;;;;;12.97;58.56;98271.59;5011907;28;42526;-80
2021/05/01 20:10:00;;;;;;;7.87;7.07;;;;;;;12.94;58.33;98278.00;4979520;28;41278;-79
2021/05/01 20:12:28;;;;;;;8.90;8.00;;;;;;;12.91;58.71;98267.59;4995161;28;39810;-79
2021/05/01 20:14:55;;;;;;;8.63;7.83;;;;;;;12.87;59.41;98260.84;4998193;28;42409;-77
2021/05/01 20:17:23;;;;;;;9.30;8.40;;;;;;;12.67;59.36;98236.88;4981378;28;41931;-76
2021/05/01 20:19:50;;;;;;;10.10;9.20;;;;;;;12.81;59.54;98265.81;5010985;28;42247;-76
2021/05/01 20:22:17;;;;;;;8.30;7.50;;;;;;;12.74;60.57;98254.84;5021454;28;39812;-78
2021/05/01 20:24:45;;;;;;;7.90;7.10;;;;;;;12.68;61.03;98265.13;5005395;28;42381;-76
2021/05/01 20:27:13;;;;;;;8.13;7.37;;;;;;;12.63;61.29;98256.66;4998164;28;43554;-74
2021/05/01 20:29:42;;;;;;;9.03;8.23;;;;;;;12.57;62.10;98245.59;5014567;28;41252;-74
2021/05/01 20:32:10;;;;;;;11.13;10.07;;;;;;;12.54;63.66;98245.81;4983124;28;40336;-74
2021/05/01 20:34:38;;;;;;;10.40;9.40;;;;;;;12.44;62.86;98247.53;4996209;28;41859;-76
2021/05/01 20:37:06;;;;;;;8.93;8.03;;;;;;;12.43;63.44;98245.00;4990246;28;43314;-75
2021/05/01 20:39:34;;;;;;;11.80;10.70;;;;;;;12.38;65.26;98240.03;5016391;28;43042;-74
2021/05/01 20:42:01;;;;;;;10.37;9.10;;;;;;;12.38;64.36;98255.97;4992775;28;40623;-75
2021/05/01 20:44:28;;;;;;;10.10;9.20;;;;;;;12.36;64.46;98249.13;4978468;28;41720;-74
2021/05/01 20:46:56;;;;;;;12.30;11.10;;;;;;;12.34;64.57;98251.88;4990779;28;41514;-76
2021/05/01 20:49:24;;;;;;;10.87;9.70;;;;;;;12.24;64.54;98238.47;5011249;28;43567;-76
2021/05/01 20:51:53;;;;;;;11.40;10.33;;;;;;;12.25;65.83;98247.28;5008707;28;39277;-74
2021/05/01 20:54:21;;;;;;;11.70;10.57;;;;;;;12.12;66.62;98236.78;5002914;28;41961;-74
2021/05/01 20:56:49;;;;;;;13.07;11.87;;;;;;;12.16;67.85;98253.31;4991591;28;42463;-75
2021/05/01 20:59:18;;;;;;;13.17;11.97;;;;;;;12.07;67.92;98252.25;5006549;28;41904;-75
2021/05/01 21:01:45;;;;;;;14.07;12.67;;;;;;;12.10;67.92;98259.13;5003635;28;40591;-74
2021/05/01 21:04:13;;;;;;;12.37;11.13;;;;;;;11.99;68.34;98251.16;4984391;28;41441;-75
2021/05/01 21:06:40;;;;;;;13.67;12.30;;;;;;;11.88;68.75;98250.16;5004424;28;41799;-76
2021/05/01 21:09:09;;;;;;;11.00;9.90;;;;;;;11.81;68.27;98248.97;4996053;28;41883;-75
2021/05/01 21:11:36;;;;;;;11.17;10.07;;;;;;;11.92;68.14;98260.53;5006536;28;39932;-76
2021/05/01 21:14:04;;;;;;;10.97;9.97;;;;;;;11.89;68.88;98258.97;4995432;28;41480;-76
2021/05/01 21:16:34;;;;;;;14.07;12.67;;;;;;;11.79;68.47;98250.03;4986389;28;41753;-75
2021/05/01 21:19:03;;;;;;;11.50;10.47;;;;;;;11.81;68.79;98256.91;4990731;28;41370;-76
2021/05/01 21:21:36;;;;;;;11.57;10.47;;;;;;;11.81;69.19;98264.88;4978016;28;41601;-75
2021/05/01 21:24:05;;;;;;;15.10;13.23;;;;;;;11.81;68.49;98267.53;5003572;28;40586;-75
2021/05/01 21:26:33;;;;;;;13.83;12.50;;;;;;;11.74;68.82;98247.72;4973440;28;43186;-75
2021/05/01 21:29:01;;;;;;;12.93;11.60;;;;;;;11.82;69.09;98261.25;4993099;28;41570;-75
2021/05/01 21:31:30;;;;;;;12.53;11.33;;;;;;;11.80;69.83;98257.88;4976687;28;41234;-76
2021/05/01 21:33:58;;;;;;;11.27;10.17;;;;;;;11.78;70.16;98254.50;4999861;28;41744;-76
2021/05/01 21:36:26;;;;;;;12.77;11.47;;;;;;;11.77;69.79;98260.75;4991621;28;41995;-75
2021/05/01 21:38:54;;;;;;;13.67;12.40;;;;;;;11.57;70.13;98232.25;4974988;28;41999;-76
2021/05/01 21:41:21;;;;;;;12.63;11.43;;;;;;;11.64;70.38;98240.56;4998485;28;39922;-76
2021/05/01 21:43:49;;;;;;;11.27;10.17;;;;;;;11.53;70.20;98220.16;5002949;28;41589;-76
2021/05/01 21:46:16;;;;;;;11.33;10.13;;;;;;;11.68;70.47;98247.34;5007327;28;43627;-75
2021/05/01 21:48:46;;;;;;;18.07;16.33;;;;;;;11.67;71.06;98253.59;4990465;28;42517;-74
2021/05/01 21:51:15;;;;;;;13.03;11.73;;;;;;;11.68;71.04;98258.78;5003943;28;40728;-75
2021/05/01 21:53:44;;;;;;;12.77;11.47;;;;;;;11.66;71.89;98255.41;4985250;28;42960;-75
2021/05/01 21:56:12;;;;;;;16.60;14.93;;;;;;;11.65;71.74;98251.06;5000292;28;42484;-75
2021/05/01 21:58:40;;;;;;;13.90;12.60;;;;;;;11.66;72.11;98252.75;5005314;28;42449;-77
2021/05/01 22:01:11;;;;;;;18.10;16.20;;;;;;;11.45;71.69;98214.63;5000490;28;39307;-73
2021/05/01 22:03:40;;;;;;;13.43;12.10;;;;;;;11.65;71.69;98237.81;4983494;28;42920;-74
2021/05/01 22:06:09;;;;;;;16.83;15.27;;;;;;;11.65;72.40;98242.25;4987016;28;42742;-73
2021/05/01 22:08:37;;;;;;;16.33;14.73;;;;;;;11.63;72.36;98245.03;5002446;28;41990;-75
2021/05/01 22:11:06;;;;;;;16.77;15.17;;;;;;;11.61;72.63;98241.66;4990959;28;40510;-72
2021/05/01 22:13:35;;;;;;;21.60;16.57;;;;;;;11.52;72.63;98231.75;5007232;28;41806;-73
2021/05/01 22:16:04;;;;;;;18.43;16.73;;;;;;;11.57;73.87;98250.81;5009021;28;43516;-74
2021/05/01 22:18:34;;;;;;;13.83;12.63;;;;;;;11.52;74.24;98240.53;5001453;28;42866;-75
2021/05/01 22:21:12;;;;;;;15.60;14.17;;;;;;;11.47;74.53;98244.53;5006020;28;38783;-76
2021/05/01 22:23:49;;;;;;;14.90;13.57;;;;;;;11.51;74.83;98252.09;5006226;28;42205;-74
2021/05/01 22:26:19;;;;;;;18.87;17.07;;;;;;;11.45;74.85;98246.44;5001144;28;43418;-73
2021/05/01 22:28:47;;;;;;;16.13;14.67;;;;;;;11.42;74.90;98252.81;5003371;28;41710;-75
2021/05/01 22:31:15;;;;;;;13.77;12.57;;;;;;;11.41;74.76;98243.16;5002997;28;39386;-74
2021/05/01 22:33:43;;;;;;;15.30;13.80;;;;;;;11.46;75.34;98253.44;5002949;28;42341;-76
2021/05/01 22:36:10;;;;;;;17.67;16.07;;;;;;;11.43;75.11;98258.97;4998351;28;43416;-74
2021/05/01 22:38:38;;;;;;;19.00;17.30;;;;;;;11.42;75.31;98267.88;4995292;28;42336;-74
2021/05/01 22:41:07;;;;;;;18.63;16.90;;;;;;;11.40;75.51;98261.84;4990719;28;39800;-73
2021/05/01 22:43:34;;;;;;;16.43;14.83;;;;;;;11.39;75.57;98266.28;4985923;28;40333;-75
2021/05/01 22:46:01;;;;;;;17.10;15.43;;;;;;;11.42;75.19;98268.72;5000574;28;42647;-73
2021/05/01 22:48:28;;;;;;;19.63;17.67;;;;;;;11.33;75.35;98264.13;5007426;28;42409;-74
2021/05/01 22:50:57;;;;;;;14.33;13.03;;;;;;;11.39;75.35;98266.28;4986911;28;39946;-74
2021/05/01 22:53:25;;;;;;;18.07;16.37;;;;;;;11.38;75.71;98261.94;5002745;28;42173;-74
2021/05/01 22:55:52;;;;;;;18.53;16.70;;;;;;;11.27;75.36;98247.81;5004981;28;42257;-74
2021/05/01 22:58:19;;;;;;;16.43;14.93;;;;;;;11.37;76.02;98275.34;5002064;28;42119;-75
2021/05/01 23:00:46;;;;;;;20.73;18.63;;;;;;;11.30;75.96;98268.78;4995289;28;39095;-75
2021/05/01 23:03:14;;;;;;;19.80;17.93;;;;;;;11.27;76.24;98266.38;4999604;28;41974;-74
2021/05/01 23:05:41;;;;;;;16.20;14.67;;;;;;;11.19;76.23;98261.66;5005667;28;42178;-74
2021/05/01 23:08:10;;;;;;;21.27;19.20;;;;;;;11.22;76.63;98263.22;5006060;28;42554;-74
2021/05/01 23:10:37;;;;;;;18.27;16.47;;;;;;;11.20;76.67;98267.78;5002305;28;40399;-75
2021/05/01 23:13:04;;;;;;;18.63;16.93;;;;;;;11.16;77.14;98272.47;4987334;28;40392;-75
2021/05/01 23:15:31;;;;;;;20.50;18.30;;;;;;;11.07;77.18;98263.41;5004876;28;42401;-73
2021/05/01 23:17:58;;;;;;;19.63;17.63;;;;;;;11.12;77.23;98271.88;5004765;28;42461;-74
2021/05/01 23:20:28;;;;;;;20.90;18.73;;;;;;;11.09;77.40;98271.25;5002769;28;40681;-74
2021/05/01 23:23:01;;;;;;;18.97;16.97;;;;;;;11.07;76.76;98268.69;5007312;28;41576;-75
2021/05/01 23:25:31;;;;;;;17.57;15.77;;;;;;;11.08;76.64;98264.25;5009863;28;42735;-74
2021/05/01 23:28:00;;;;;;;21.93;19.77;;;;;;;11.08;76.87;98267.75;4989508;28;41399;-75
2021/05/01 23:30:29;;;;;;;17.60;15.90;;;;;;;11.09;76.97;98261.50;4998846;28;39755;-75
2021/05/01 23:32:58;;;;;;;17.50;15.70;;;;;;;11.09;76.58;98263.28;5006079;28;41315;-76
2021/05/01 23:35:28;;;;;;;17.90;16.00;;;;;;;11.08;76.68;98259.78;5005764;28;42350;-74
2021/05/01 23:37:56;;;;;;;17.93;16.13;;;;;;;11.04;76.81;98258.31;5012392;28;42901;-74
2021/05/01 23:40:25;;;;;;;18.47;16.67;;;;;;;11.04;77.32;98263.63;5005716;28;40652;-75
2021/05/01 23:42:59;;;;;;;17.00;15.30;;;;;;;11.04;76.88;98268.06;4984604;28;41654;-74
2021/05/01 23:45:27;;;;;;;21.00;18.90;;;;;;;10.94;76.83;98249.38;5005474;28;42745;-75
2021/05/01 23:47:56;;;;;;;22.83;20.33;;;;;;;10.96;77.06;98266.00;5000031;28;42610;-75
2021/05/01 23:50:26;;;;;;;19.70;17.70;;;;;;;10.94;77.39;98262.63;4987688;28;39215;-74
2021/05/01 23:52:56;;;;;;;21.93;19.33;;;;;;;10.93;77.65;98276.81;5010166;28;42239;-75
2021/05/01 23:55:25;;;;;;;24.53;21.13;;;;;;;10.89;77.88;98269.19;4997425;28;42540;-75
2021/05/01 23:57:55;;;;;;;28.90;24.70;;;;;;;10.79;78.15;98263.72;5007026;28;42657;-74
